sensor_id;sensor_type;location;lat;lon;timestamp;P1;durP1;ratioP1;P2;durP2;ratioP2
62475;SDS011;50739;45.670;11.936;2023-08-01T00:05:03;8.65;;;7.25;;
62475;SDS011;50739;45.670;11.936;2023-08-01T00:10:06;10.20;;;7.17;;
62475;SDS011;50739;45.670;11.936;2023-08-01T00:15:10;8.20;;;7.07;;
62475;SDS011;50739;45.670;11.936;2023-08-01T00:20:13;9.60;;;7.00;;
62475;SDS011;50739;45.670;11.936;2023-08-01T00:25:15;7.53;;;6.65;;
62475;SDS011;50739;45.670;11.936;2023-08-01T00:30:20;6.90;;;5.90;;
62475;SDS011;50739;45.670;11.936;2023-08-01T00:35:22;7.37;;;5.97;;
62475;SDS011;50739;45.670;11.936;2023-08-01T00:40:29;10.02;;;6.20;;
62475;SDS011;50739;45.670;11.936;2023-08-01T00:45:33;8.18;;;5.35;;
62475;SDS011;50739;45.670;11.936;2023-08-01T00:50:35;6.37;;;5.00;;
62475;SDS011;50739;45.670;11.936;2023-08-01T00:55:38;6.20;;;4.60;;
62475;SDS011;50739;45.670;11.936;2023-08-01T01:00:43;6.50;;;4.60;;
62475;SDS011;50739;45.670;11.936;2023-08-01T01:05:47;4.90;;;4.30;;
62475;SDS011;50739;45.670;11.936;2023-08-01T01:10:54;6.20;;;4.23;;
62475;SDS011;50739;45.670;11.936;2023-08-01T01:15:58;5.20;;;4.00;;
62475;SDS011;50739;45.670;11.936;2023-08-01T01:21:03;5.25;;;4.10;;
62475;SDS011;50739;45.670;11.936;2023-08-01T01:26:06;6.18;;;4.20;;
62475;SDS011;50739;45.670;11.936;2023-08-01T01:31:09;5.28;;;4.20;;
62475;SDS011;50739;45.670;11.936;2023-08-01T01:36:13;4.53;;;3.95;;
62475;SDS011;50739;45.670;11.936;2023-08-01T01:41:16;6.13;;;4.28;;
62475;SDS011;50739;45.670;11.936;2023-08-01T01:46:19;5.70;;;4.32;;
62475;SDS011;50739;45.670;11.936;2023-08-01T01:51:24;4.97;;;3.93;;
62475;SDS011;50739;45.670;11.936;2023-08-01T01:56:27;4.47;;;4.07;;
62475;SDS011;50739;45.670;11.936;2023-08-01T02:01:30;5.35;;;4.45;;
62475;SDS011;50739;45.670;11.936;2023-08-01T02:06:34;5.28;;;4.53;;
62475;SDS011;50739;45.670;11.936;2023-08-01T02:11:37;6.40;;;4.80;;
62475;SDS011;50739;45.670;11.936;2023-08-01T02:16:39;6.03;;;5.27;;
62475;SDS011;50739;45.670;11.936;2023-08-01T04:07:26;5.75;;;4.75;;
62475;SDS011;50739;45.670;11.936;2023-08-01T04:12:28;7.80;;;4.60;;
62475;SDS011;50739;45.670;11.936;2023-08-01T04:17:31;5.05;;;4.53;;
62475;SDS011;50739;45.670;11.936;2023-08-01T04:22:35;6.13;;;4.53;;
62475;SDS011;50739;45.670;11.936;2023-08-01T04:27:37;5.18;;;4.00;;
62475;SDS011;50739;45.670;11.936;2023-08-01T04:32:39;5.57;;;3.92;;
62475;SDS011;50739;45.670;11.936;2023-08-01T04:37:43;5.70;;;4.03;;
62475;SDS011;50739;45.670;11.936;2023-08-01T04:42:45;6.38;;;4.20;;
62475;SDS011;50739;45.670;11.936;2023-08-01T04:47:47;4.90;;;4.40;;
62475;SDS011;50739;45.670;11.936;2023-08-01T04:52:51;5.18;;;4.53;;
62475;SDS011;50739;45.670;11.936;2023-08-01T04:57:53;6.10;;;4.47;;
62475;SDS011;50739;45.670;11.936;2023-08-01T05:02:56;6.68;;;4.10;;
62475;SDS011;50739;45.670;11.936;2023-08-01T05:07:59;5.03;;;3.88;;
62475;SDS011;50739;45.670;11.936;2023-08-01T05:18:19;5.38;;;4.40;;
62475;SDS011;50739;45.670;11.936;2023-08-01T05:23:23;6.53;;;4.00;;
62475;SDS011;50739;45.670;11.936;2023-08-01T05:28:26;6.88;;;4.72;;
62475;SDS011;50739;45.670;11.936;2023-08-01T05:33:28;10.37;;;6.50;;
62475;SDS011;50739;45.670;11.936;2023-08-01T05:56:11;14.57;;;9.48;;
62475;SDS011;50739;45.670;11.936;2023-08-01T06:01:14;13.65;;;8.73;;
62475;SDS011;50739;45.670;11.936;2023-08-01T06:06:17;14.35;;;8.55;;
62475;SDS011;50739;45.670;11.936;2023-08-01T06:11:21;9.48;;;6.50;;
62475;SDS011;50739;45.670;11.936;2023-08-01T06:16:23;8.15;;;5.47;;
62475;SDS011;50739;45.670;11.936;2023-08-01T06:21:25;5.90;;;5.30;;
62475;SDS011;50739;45.670;11.936;2023-08-01T06:26:29;5.72;;;4.75;;
62475;SDS011;50739;45.670;11.936;2023-08-01T06:31:32;7.20;;;5.30;;
62475;SDS011;50739;45.670;11.936;2023-08-01T06:36:34;10.27;;;6.15;;
62475;SDS011;50739;45.670;11.936;2023-08-01T06:41:38;9.47;;;6.50;;
62475;SDS011;50739;45.670;11.936;2023-08-01T06:46:40;6.93;;;5.90;;
62475;SDS011;50739;45.670;11.936;2023-08-01T06:51:42;8.00;;;6.30;;
62475;SDS011;50739;45.670;11.936;2023-08-01T06:56:46;9.60;;;6.53;;
62475;SDS011;50739;45.670;11.936;2023-08-01T07:01:49;8.30;;;6.18;;
62475;SDS011;50739;45.670;11.936;2023-08-01T07:06:51;6.30;;;5.70;;
62475;SDS011;50739;45.670;11.936;2023-08-01T07:11:54;6.90;;;4.65;;
62475;SDS011;50739;45.670;11.936;2023-08-01T07:16:57;3.85;;;3.53;;
62475;SDS011;50739;45.670;11.936;2023-08-01T07:21:59;5.78;;;3.28;;
62475;SDS011;50739;45.670;11.936;2023-08-01T07:27:03;3.70;;;2.67;;
62475;SDS011;50739;45.670;11.936;2023-08-01T07:32:06;3.10;;;2.47;;
62475;SDS011;50739;45.670;11.936;2023-08-01T07:37:09;3.20;;;2.70;;
62475;SDS011;50739;45.670;11.936;2023-08-01T07:42:12;3.80;;;2.30;;
62475;SDS011;50739;45.670;11.936;2023-08-01T07:47:15;3.63;;;2.58;;
62475;SDS011;50739;45.670;11.936;2023-08-01T07:52:17;3.50;;;2.40;;
62475;SDS011;50739;45.670;11.936;2023-08-01T07:57:20;3.42;;;2.58;;
62475;SDS011;50739;45.670;11.936;2023-08-01T08:02:23;2.63;;;2.03;;
62475;SDS011;50739;45.670;11.936;2023-08-01T08:07:25;2.60;;;2.08;;
62475;SDS011;50739;45.670;11.936;2023-08-01T08:12:29;5.72;;;3.00;;
62475;SDS011;50739;45.670;11.936;2023-08-01T08:17:31;3.40;;;2.70;;
62475;SDS011;50739;45.670;11.936;2023-08-01T08:22:33;3.03;;;2.80;;
62475;SDS011;50739;45.670;11.936;2023-08-01T08:27:37;3.43;;;3.03;;
62475;SDS011;50739;45.670;11.936;2023-08-01T08:32:39;4.25;;;3.20;;
62475;SDS011;50739;45.670;11.936;2023-08-01T08:37:41;3.87;;;3.47;;
62475;SDS011;50739;45.670;11.936;2023-08-01T08:42:45;4.50;;;4.00;;
62475;SDS011;50739;45.670;11.936;2023-08-01T08:47:52;4.40;;;3.35;;
62475;SDS011;50739;45.670;11.936;2023-08-01T08:52:57;3.53;;;2.92;;
62475;SDS011;50739;45.670;11.936;2023-08-01T08:58:01;3.70;;;3.30;;
62475;SDS011;50739;45.670;11.936;2023-08-01T09:03:05;4.10;;;3.57;;
62475;SDS011;50739;45.670;11.936;2023-08-01T09:08:07;4.40;;;3.33;;
62475;SDS011;50739;45.670;11.936;2023-08-01T09:13:18;5.32;;;3.20;;
62475;SDS011;50739;45.670;11.936;2023-08-01T09:18:20;4.40;;;3.30;;
62475;SDS011;50739;45.670;11.936;2023-08-01T09:23:24;3.38;;;2.80;;
62475;SDS011;50739;45.670;11.936;2023-08-01T09:28:28;2.70;;;2.35;;
62475;SDS011;50739;45.670;11.936;2023-08-01T09:33:37;3.35;;;2.58;;
62475;SDS011;50739;45.670;11.936;2023-08-01T09:38:40;3.72;;;2.80;;
62475;SDS011;50739;45.670;11.936;2023-08-01T09:43:44;2.83;;;2.40;;
62475;SDS011;50739;45.670;11.936;2023-08-01T09:48:47;2.50;;;2.28;;
62475;SDS011;50739;45.670;11.936;2023-08-01T09:53:51;2.57;;;2.10;;
62475;SDS011;50739;45.670;11.936;2023-08-01T09:58:55;2.17;;;1.95;;
62475;SDS011;50739;45.670;11.936;2023-08-01T10:03:58;1.77;;;1.67;;
62475;SDS011;50739;45.670;11.936;2023-08-01T10:09:01;1.80;;;1.70;;
62475;SDS011;50739;45.670;11.936;2023-08-01T10:14:05;2.10;;;1.90;;
62475;SDS011;50739;45.670;11.936;2023-08-01T10:19:08;2.15;;;1.70;;
62475;SDS011;50739;45.670;11.936;2023-08-01T10:24:12;2.40;;;2.00;;
62475;SDS011;50739;45.670;11.936;2023-08-01T10:29:19;2.30;;;2.10;;
62475;SDS011;50739;45.670;11.936;2023-08-01T10:34:21;2.75;;;2.20;;
62475;SDS011;50739;45.670;11.936;2023-08-01T10:39:24;3.25;;;2.70;;
62475;SDS011;50739;45.670;11.936;2023-08-01T10:44:28;2.30;;;2.07;;
62475;SDS011;50739;45.670;11.936;2023-08-01T10:49:33;3.17;;;2.55;;
62475;SDS011;50739;45.670;11.936;2023-08-01T10:54:36;2.63;;;2.43;;
62475;SDS011;50739;45.670;11.936;2023-08-01T10:59:41;2.55;;;2.10;;
62475;SDS011;50739;45.670;11.936;2023-08-01T11:04:54;3.25;;;2.28;;
62475;SDS011;50739;45.670;11.936;2023-08-01T11:10:04;5.07;;;4.05;;
62475;SDS011;50739;45.670;11.936;2023-08-01T11:15:09;2.53;;;2.33;;
62475;SDS011;50739;45.670;11.936;2023-08-01T11:20:12;2.63;;;2.42;;
62475;SDS011;50739;45.670;11.936;2023-08-01T11:25:15;3.15;;;2.10;;
62475;SDS011;50739;45.670;11.936;2023-08-01T11:30:19;3.37;;;1.90;;
62475;SDS011;50739;45.670;11.936;2023-08-01T11:35:21;2.63;;;2.30;;
62475;SDS011;50739;45.670;11.936;2023-08-01T11:40:24;2.47;;;2.27;;
62475;SDS011;50739;45.670;11.936;2023-08-01T11:45:29;4.22;;;2.40;;
62475;SDS011;50739;45.670;11.936;2023-08-01T11:50:32;2.30;;;2.10;;
62475;SDS011;50739;45.670;11.936;2023-08-01T11:55:34;2.88;;;2.40;;
62475;SDS011;50739;45.670;11.936;2023-08-01T12:00:40;2.50;;;2.30;;
62475;SDS011;50739;45.670;11.936;2023-08-01T12:05:43;2.58;;;2.30;;
62475;SDS011;50739;45.670;11.936;2023-08-01T12:10:46;2.83;;;2.47;;
62475;SDS011;50739;45.670;11.936;2023-08-01T12:15:50;2.60;;;2.40;;
62475;SDS011;50739;45.670;11.936;2023-08-01T12:20:53;3.08;;;2.42;;
62475;SDS011;50739;45.670;11.936;2023-08-01T12:25:55;2.40;;;2.20;;
62475;SDS011;50739;45.670;11.936;2023-08-01T12:30:59;3.58;;;2.65;;
62475;SDS011;50739;45.670;11.936;2023-08-01T12:36:01;2.40;;;2.20;;
62475;SDS011;50739;45.670;11.936;2023-08-01T12:41:04;3.42;;;2.47;;
62475;SDS011;50739;45.670;11.936;2023-08-01T12:46:08;2.95;;;2.75;;
62475;SDS011;50739;45.670;11.936;2023-08-01T12:51:10;2.57;;;2.37;;
62475;SDS011;50739;45.670;11.936;2023-08-01T12:56:12;2.90;;;2.40;;
62475;SDS011;50739;45.670;11.936;2023-08-01T13:01:16;5.63;;;2.37;;
62475;SDS011;50739;45.670;11.936;2023-08-01T13:06:18;2.45;;;2.25;;
62475;SDS011;50739;45.670;11.936;2023-08-01T13:11:20;3.25;;;2.20;;
62475;SDS011;50739;45.670;11.936;2023-08-01T13:16:24;2.70;;;2.50;;
62475;SDS011;50739;45.670;11.936;2023-08-01T13:21:26;2.97;;;2.40;;
62475;SDS011;50739;45.670;11.936;2023-08-01T13:26:28;3.00;;;2.60;;
62475;SDS011;50739;45.670;11.936;2023-08-01T13:31:32;4.30;;;2.70;;
62475;SDS011;50739;45.670;11.936;2023-08-01T13:36:35;3.00;;;2.40;;
62475;SDS011;50739;45.670;11.936;2023-08-01T13:41:37;3.30;;;2.53;;
62475;SDS011;50739;45.670;11.936;2023-08-01T13:46:41;3.75;;;2.72;;
62475;SDS011;50739;45.670;11.936;2023-08-01T13:51:43;3.00;;;2.60;;
62475;SDS011;50739;45.670;11.936;2023-08-01T13:56:45;2.88;;;2.58;;
62475;SDS011;50739;45.670;11.936;2023-08-01T14:01:51;3.00;;;2.70;;
62475;SDS011;50739;45.670;11.936;2023-08-01T14:06:54;2.70;;;2.50;;
62475;SDS011;50739;45.670;11.936;2023-08-01T14:11:57;3.00;;;2.80;;
62475;SDS011;50739;45.670;11.936;2023-08-01T14:17:00;3.20;;;2.65;;
62475;SDS011;50739;45.670;11.936;2023-08-01T14:22:03;3.95;;;3.13;;
62475;SDS011;50739;45.670;11.936;2023-08-01T14:27:06;3.00;;;2.70;;
62475;SDS011;50739;45.670;11.936;2023-08-01T14:32:09;3.92;;;2.88;;
62475;SDS011;50739;45.670;11.936;2023-08-01T14:37:12;3.10;;;2.80;;
62475;SDS011;50739;45.670;11.936;2023-08-01T14:42:14;5.23;;;3.67;;
62475;SDS011;50739;45.670;11.936;2023-08-01T14:47:18;4.53;;;3.03;;
62475;SDS011;50739;45.670;11.936;2023-08-01T14:52:20;3.45;;;3.15;;
62475;SDS011;50739;45.670;11.936;2023-08-01T14:57:22;4.55;;;3.35;;
62475;SDS011;50739;45.670;11.936;2023-08-01T15:02:26;3.55;;;3.20;;
62475;SDS011;50739;45.670;11.936;2023-08-01T15:07:28;3.93;;;3.17;;
62475;SDS011;50739;45.670;11.936;2023-08-01T15:12:31;4.30;;;3.30;;
62475;SDS011;50739;45.670;11.936;2023-08-01T15:17:35;3.20;;;2.75;;
62475;SDS011;50739;45.670;11.936;2023-08-01T15:22:37;3.20;;;2.93;;
62475;SDS011;50739;45.670;11.936;2023-08-01T15:39:05;3.00;;;2.80;;
62475;SDS011;50739;45.670;11.936;2023-08-01T15:44:08;3.47;;;3.00;;
62475;SDS011;50739;45.670;11.936;2023-08-01T15:49:10;3.42;;;2.92;;
62475;SDS011;50739;45.670;11.936;2023-08-01T15:54:14;3.15;;;2.72;;
62475;SDS011;50739;45.670;11.936;2023-08-01T15:59:16;3.55;;;3.08;;
62475;SDS011;50739;45.670;11.936;2023-08-01T16:04:18;3.08;;;2.80;;
62475;SDS011;50739;45.670;11.936;2023-08-01T16:09:22;3.92;;;3.40;;
62475;SDS011;50739;45.670;11.936;2023-08-01T16:14:24;4.85;;;3.38;;
62475;SDS011;50739;45.670;11.936;2023-08-01T16:19:27;5.55;;;3.13;;
62475;SDS011;50739;45.670;11.936;2023-08-01T16:24:30;5.40;;;3.10;;
62475;SDS011;50739;45.670;11.936;2023-08-01T16:29:33;5.33;;;3.40;;
62475;SDS011;50739;45.670;11.936;2023-08-01T16:34:35;4.07;;;3.20;;
62475;SDS011;50739;45.670;11.936;2023-08-01T16:39:39;4.83;;;3.50;;
62475;SDS011;50739;45.670;11.936;2023-08-01T16:44:42;4.00;;;3.08;;
62475;SDS011;50739;45.670;11.936;2023-08-01T16:49:45;3.70;;;3.30;;
62475;SDS011;50739;45.670;11.936;2023-08-01T16:54:49;3.58;;;3.15;;
62475;SDS011;50739;45.670;11.936;2023-08-01T16:59:52;3.40;;;3.10;;
62475;SDS011;50739;45.670;11.936;2023-08-01T17:04:54;5.07;;;2.95;;
62475;SDS011;50739;45.670;11.936;2023-08-01T17:09:58;3.35;;;3.05;;
62475;SDS011;50739;45.670;11.936;2023-08-01T17:15:02;5.40;;;3.40;;
62475;SDS011;50739;45.670;11.936;2023-08-01T17:20:06;3.50;;;3.20;;
62475;SDS011;50739;45.670;11.936;2023-08-01T17:25:10;4.35;;;3.60;;
62475;SDS011;50739;45.670;11.936;2023-08-01T17:30:13;3.97;;;3.40;;
62475;SDS011;50739;45.670;11.936;2023-08-01T17:35:15;5.30;;;3.67;;
62475;SDS011;50739;45.670;11.936;2023-08-01T17:40:19;4.63;;;4.10;;
62475;SDS011;50739;45.670;11.936;2023-08-01T17:45:21;6.00;;;4.60;;
62475;SDS011;50739;45.670;11.936;2023-08-01T17:50:24;11.87;;;8.30;;
62475;SDS011;50739;45.670;11.936;2023-08-01T17:55:28;9.90;;;5.80;;
62475;SDS011;50739;45.670;11.936;2023-08-01T18:00:30;4.28;;;3.83;;
62475;SDS011;50739;45.670;11.936;2023-08-01T18:05:33;5.20;;;4.25;;
62475;SDS011;50739;45.670;11.936;2023-08-01T18:10:36;5.70;;;4.03;;
62475;SDS011;50739;45.670;11.936;2023-08-01T18:15:39;5.50;;;4.10;;
62475;SDS011;50739;45.670;11.936;2023-08-01T18:20:43;5.18;;;4.43;;
62475;SDS011;50739;45.670;11.936;2023-08-01T18:25:46;5.18;;;4.55;;
62475;SDS011;50739;45.670;11.936;2023-08-01T18:30:49;6.80;;;5.47;;
62475;SDS011;50739;45.670;11.936;2023-08-01T18:35:51;7.95;;;6.47;;
62475;SDS011;50739;45.670;11.936;2023-08-01T18:40:55;5.80;;;5.00;;
62475;SDS011;50739;45.670;11.936;2023-08-01T18:45:57;5.63;;;5.10;;
62475;SDS011;50739;45.670;11.936;2023-08-01T18:50:59;5.60;;;5.00;;
62475;SDS011;50739;45.670;11.936;2023-08-01T18:56:07;5.37;;;4.87;;
62475;SDS011;50739;45.670;11.936;2023-08-01T19:01:11;5.03;;;4.53;;
62475;SDS011;50739;45.670;11.936;2023-08-01T19:06:15;5.55;;;4.35;;
62475;SDS011;50739;45.670;11.936;2023-08-01T19:11:19;4.18;;;3.78;;
62475;SDS011;50739;45.670;11.936;2023-08-01T19:16:21;5.00;;;3.80;;
62475;SDS011;50739;45.670;11.936;2023-08-01T19:21:23;4.10;;;3.60;;
62475;SDS011;50739;45.670;11.936;2023-08-01T19:26:27;3.28;;;2.88;;
62475;SDS011;50739;45.670;11.936;2023-08-01T19:31:29;3.30;;;2.72;;
62475;SDS011;50739;45.670;11.936;2023-08-01T19:36:32;3.53;;;3.10;;
62475;SDS011;50739;45.670;11.936;2023-08-01T19:41:36;3.00;;;2.70;;
62475;SDS011;50739;45.670;11.936;2023-08-01T19:46:38;3.78;;;2.65;;
62475;SDS011;50739;45.670;11.936;2023-08-01T19:51:40;2.33;;;1.90;;
62475;SDS011;50739;45.670;11.936;2023-08-01T19:56:44;1.63;;;1.50;;
62475;SDS011;50739;45.670;11.936;2023-08-01T20:01:47;1.60;;;1.50;;
62475;SDS011;50739;45.670;11.936;2023-08-01T20:06:49;1.70;;;1.40;;
62475;SDS011;50739;45.670;11.936;2023-08-01T20:11:53;1.42;;;1.27;;
62475;SDS011;50739;45.670;11.936;2023-08-01T20:16:55;1.60;;;1.50;;
62475;SDS011;50739;45.670;11.936;2023-08-01T20:21:58;1.70;;;1.60;;
62475;SDS011;50739;45.670;11.936;2023-08-01T20:27:02;2.10;;;1.90;;
62475;SDS011;50739;45.670;11.936;2023-08-01T20:32:06;2.35;;;1.65;;
62475;SDS011;50739;45.670;11.936;2023-08-01T20:37:09;2.13;;;1.73;;
62475;SDS011;50739;45.670;11.936;2023-08-01T20:42:12;3.65;;;1.95;;
62475;SDS011;50739;45.670;11.936;2023-08-01T20:47:14;3.30;;;1.90;;
62475;SDS011;50739;45.670;11.936;2023-08-01T20:52:17;2.42;;;2.00;;
62475;SDS011;50739;45.670;11.936;2023-08-01T20:57:20;3.53;;;2.00;;
62475;SDS011;50739;45.670;11.936;2023-08-01T21:02:23;2.35;;;2.03;;
62475;SDS011;50739;45.670;11.936;2023-08-01T21:07:25;3.65;;;1.98;;
62475;SDS011;50739;45.670;11.936;2023-08-01T21:12:29;2.25;;;1.70;;
62475;SDS011;50739;45.670;11.936;2023-08-01T21:17:32;2.05;;;1.67;;
62475;SDS011;50739;45.670;11.936;2023-08-01T21:22:34;2.08;;;1.60;;
62475;SDS011;50739;45.670;11.936;2023-08-01T21:27:38;3.77;;;1.63;;
62475;SDS011;50739;45.670;11.936;2023-08-01T21:32:40;1.35;;;1.25;;
62475;SDS011;50739;45.670;11.936;2023-08-01T21:37:42;1.52;;;1.20;;
62475;SDS011;50739;45.670;11.936;2023-08-01T21:42:47;3.20;;;1.27;;
62475;SDS011;50739;45.670;11.936;2023-08-01T21:47:49;1.40;;;1.30;;
62475;SDS011;50739;45.670;11.936;2023-08-01T21:52:52;2.47;;;1.20;;
62475;SDS011;50739;45.670;11.936;2023-08-01T21:57:56;1.45;;;1.05;;
62475;SDS011;50739;45.670;11.936;2023-08-01T22:02:58;1.48;;;1.30;;
62475;SDS011;50739;45.670;11.936;2023-08-01T22:08:00;1.23;;;1.10;;
62475;SDS011;50739;45.670;11.936;2023-08-01T22:13:04;1.40;;;1.15;;
62475;SDS011;50739;45.670;11.936;2023-08-01T22:18:07;1.97;;;1.00;;
62475;SDS011;50739;45.670;11.936;2023-08-01T22:23:17;2.10;;;1.10;;
62475;SDS011;50739;45.670;11.936;2023-08-01T22:28:20;2.72;;;1.02;;
62475;SDS011;50739;45.670;11.936;2023-08-01T22:33:23;0.80;;;0.73;;
62475;SDS011;50739;45.670;11.936;2023-08-01T22:38:26;1.20;;;0.90;;
62475;SDS011;50739;45.670;11.936;2023-08-01T22:43:29;1.27;;;0.98;;
62475;SDS011;50739;45.670;11.936;2023-08-01T22:48:32;1.17;;;0.75;;
62475;SDS011;50739;45.670;11.936;2023-08-01T22:53:34;1.50;;;0.65;;
62475;SDS011;50739;45.670;11.936;2023-08-01T22:58:38;1.40;;;0.77;;
62475;SDS011;50739;45.670;11.936;2023-08-01T23:03:41;0.70;;;0.68;;
62475;SDS011;50739;45.670;11.936;2023-08-01T23:08:44;0.95;;;0.75;;
62475;SDS011;50739;45.670;11.936;2023-08-01T23:13:47;0.70;;;0.63;;
62475;SDS011;50739;45.670;11.936;2023-08-01T23:18:50;0.80;;;0.60;;
62475;SDS011;50739;45.670;11.936;2023-08-01T23:23:52;1.85;;;0.60;;
62475;SDS011;50739;45.670;11.936;2023-08-01T23:28:56;1.90;;;0.60;;
62475;SDS011;50739;45.670;11.936;2023-08-01T23:33:58;1.30;;;0.60;;
62475;SDS011;50739;45.670;11.936;2023-08-01T23:39:01;1.77;;;0.70;;
62475;SDS011;50739;45.670;11.936;2023-08-01T23:44:05;0.67;;;0.50;;
62475;SDS011;50739;45.670;11.936;2023-08-01T23:49:08;1.20;;;0.50;;
62475;SDS011;50739;45.670;11.936;2023-08-01T23:54:10;1.10;;;0.68;;
62475;SDS011;50739;45.670;11.936;2023-08-01T23:59:14;2.05;;;0.73;;
